sensor_id;sensor_type;location;lat;lon;timestamp;pressure;altitude;pressure_sealevel;temperature;humidity
41312;BME280;27061;41.648;24.568;2023-08-21T00:01:53;86391.88;;;20.81;50.65
41312;BME280;27061;41.648;24.568;2023-08-21T00:04:20;86430.56;;;21.16;51.28
41312;BME280;27061;41.648;24.568;2023-08-21T00:06:47;86432.34;;;21.07;51.39
41312;BME280;27061;41.648;24.568;2023-08-21T00:09:14;86456.97;;;21.26;51.14
41312;BME280;27061;41.648;24.568;2023-08-21T00:11:42;86352.63;;;20.61;50.67
41312;BME280;27061;41.648;24.568;2023-08-21T00:14:09;86438.75;;;21.06;50.92
41312;BME280;27061;41.648;24.568;2023-08-21T00:16:36;86450.84;;;21.02;51.84
41312;BME280;27061;41.648;24.568;2023-08-21T00:19:03;86450.00;;;21.06;51.28
41312;BME280;27061;41.648;24.568;2023-08-21T00:21:30;86448.94;;;20.61;52.29
41312;BME280;27061;41.648;24.568;2023-08-21T00:23:58;86427.50;;;20.52;52.21
41312;BME280;27061;41.648;24.568;2023-08-21T00:26:25;86459.75;;;20.90;51.53
41312;BME280;27061;41.648;24.568;2023-08-21T00:28:52;86451.41;;;20.88;51.47
41312;BME280;27061;41.648;24.568;2023-08-21T00:31:19;86432.13;;;20.59;51.01
41312;BME280;27061;41.648;24.568;2023-08-21T00:33:46;86424.91;;;20.45;51.92
41312;BME280;27061;41.648;24.568;2023-08-21T00:36:13;86432.31;;;20.55;51.71
41312;BME280;27061;41.648;24.568;2023-08-21T00:38:41;86459.03;;;20.73;51.55
41312;BME280;27061;41.648;24.568;2023-08-21T00:41:32;86453.25;;;20.77;50.51
41312;BME280;27061;41.648;24.568;2023-08-21T00:44:01;86443.75;;;20.68;50.74
41312;BME280;27061;41.648;24.568;2023-08-21T00:46:28;86455.09;;;20.66;50.96
41312;BME280;27061;41.648;24.568;2023-08-21T00:48:55;86404.41;;;20.30;51.00
41312;BME280;27061;41.648;24.568;2023-08-21T00:51:24;86448.50;;;20.55;51.46
41312;BME280;27061;41.648;24.568;2023-08-21T00:53:51;86448.88;;;20.44;51.46
41312;BME280;27061;41.648;24.568;2023-08-21T00:56:18;86417.09;;;20.29;50.97
41312;BME280;27061;41.648;24.568;2023-08-21T00:58:46;86412.53;;;20.38;50.37
41312;BME280;27061;41.648;24.568;2023-08-21T01:01:15;86444.16;;;20.58;49.57
41312;BME280;27061;41.648;24.568;2023-08-21T01:03:44;86434.13;;;20.44;50.25
41312;BME280;27061;41.648;24.568;2023-08-21T01:06:12;86439.38;;;20.54;50.50
41312;BME280;27061;41.648;24.568;2023-08-21T01:08:50;86436.63;;;20.52;50.34
41312;BME280;27061;41.648;24.568;2023-08-21T01:12:03;86445.06;;;20.33;51.06
41312;BME280;27061;41.648;24.568;2023-08-21T01:17:04;86444.47;;;20.50;50.30
41312;BME280;27061;41.648;24.568;2023-08-21T01:19:38;86438.16;;;20.49;50.28
41312;BME280;27061;41.648;24.568;2023-08-21T01:22:07;86436.56;;;20.35;50.51
41312;BME280;27061;41.648;24.568;2023-08-21T01:24:35;86437.38;;;20.32;51.24
41312;BME280;27061;41.648;24.568;2023-08-21T01:27:02;86442.78;;;20.19;51.19
41312;BME280;27061;41.648;24.568;2023-08-21T01:29:29;86444.72;;;20.04;51.46
41312;BME280;27061;41.648;24.568;2023-08-21T01:34:46;86439.41;;;19.96;51.07
41312;BME280;27061;41.648;24.568;2023-08-21T01:37:15;86411.16;;;19.60;52.32
41312;BME280;27061;41.648;24.568;2023-08-21T01:39:43;86435.44;;;19.89;51.89
41312;BME280;27061;41.648;24.568;2023-08-21T01:42:10;86430.75;;;20.02;51.28
41312;BME280;27061;41.648;24.568;2023-08-21T01:44:37;86430.22;;;19.97;51.59
41312;BME280;27061;41.648;24.568;2023-08-21T01:47:06;86418.97;;;19.79;51.67
41312;BME280;27061;41.648;24.568;2023-08-21T01:49:35;86441.91;;;19.85;51.80
41312;BME280;27061;41.648;24.568;2023-08-21T01:52:02;86418.56;;;19.70;51.75
41312;BME280;27061;41.648;24.568;2023-08-21T01:54:30;86427.00;;;19.70;52.16
41312;BME280;27061;41.648;24.568;2023-08-21T01:56:57;86430.13;;;19.81;51.99
41312;BME280;27061;41.648;24.568;2023-08-21T01:59:24;86411.66;;;19.46;52.54
41312;BME280;27061;41.648;24.568;2023-08-21T02:01:51;86431.44;;;19.63;52.58
41312;BME280;27061;41.648;24.568;2023-08-21T02:04:18;86378.19;;;19.19;52.50
41312;BME280;27061;41.648;24.568;2023-08-21T02:06:46;86433.03;;;19.58;52.58
41312;BME280;27061;41.648;24.568;2023-08-21T02:09:13;86410.56;;;19.37;52.54
41312;BME280;27061;41.648;24.568;2023-08-21T02:11:40;86439.59;;;19.50;52.72
41312;BME280;27061;41.648;24.568;2023-08-21T02:14:07;86431.28;;;19.48;52.49
41312;BME280;27061;41.648;24.568;2023-08-21T02:16:34;86428.31;;;19.52;52.36
41312;BME280;27061;41.648;24.568;2023-08-21T02:19:03;86430.00;;;19.64;51.74
41312;BME280;27061;41.648;24.568;2023-08-21T02:21:30;86419.75;;;19.56;51.68
41312;BME280;27061;41.648;24.568;2023-08-21T02:23:58;86426.44;;;19.65;51.02
41312;BME280;27061;41.648;24.568;2023-08-21T02:26:25;86430.50;;;19.70;50.68
41312;BME280;27061;41.648;24.568;2023-08-21T02:28:52;86436.97;;;19.86;50.25
41312;BME280;27061;41.648;24.568;2023-08-21T02:31:19;86432.38;;;19.76;50.39
41312;BME280;27061;41.648;24.568;2023-08-21T02:33:47;86404.41;;;19.53;50.92
41312;BME280;27061;41.648;24.568;2023-08-21T02:36:14;86408.53;;;19.56;51.15
41312;BME280;27061;41.648;24.568;2023-08-21T02:38:41;86419.75;;;19.56;51.15
41312;BME280;27061;41.648;24.568;2023-08-21T02:41:08;86431.28;;;19.48;51.67
41312;BME280;27061;41.648;24.568;2023-08-21T02:43:35;86429.06;;;19.30;51.79
41312;BME280;27061;41.648;24.568;2023-08-21T02:46:02;86405.50;;;19.21;51.59
41312;BME280;27061;41.648;24.568;2023-08-21T02:48:31;86444.59;;;19.48;51.61
41312;BME280;27061;41.648;24.568;2023-08-21T02:51:00;86448.00;;;19.29;52.23
41312;BME280;27061;41.648;24.568;2023-08-21T02:53:31;86436.19;;;19.27;52.15
41312;BME280;27061;41.648;24.568;2023-08-21T02:55:58;86374.44;;;18.85;51.77
41312;BME280;27061;41.648;24.568;2023-08-21T02:58:25;86440.03;;;19.38;51.41
41312;BME280;27061;41.648;24.568;2023-08-21T03:00:52;86405.31;;;19.06;51.67
41312;BME280;27061;41.648;24.568;2023-08-21T03:03:20;86429.06;;;19.30;51.20
41312;BME280;27061;41.648;24.568;2023-08-21T03:05:47;86427.00;;;19.28;51.38
41312;BME280;27061;41.648;24.568;2023-08-21T03:08:14;86425.56;;;19.29;51.58
41312;BME280;27061;41.648;24.568;2023-08-21T03:10:41;86418.38;;;19.14;51.96
41312;BME280;27061;41.648;24.568;2023-08-21T03:13:08;86425.66;;;19.27;51.81
41312;BME280;27061;41.648;24.568;2023-08-21T03:15:36;86374.25;;;18.91;51.40
41312;BME280;27061;41.648;24.568;2023-08-21T03:18:03;86422.50;;;19.58;50.64
41312;BME280;27061;41.648;24.568;2023-08-21T03:20:31;86422.56;;;19.35;50.84
41312;BME280;27061;41.648;24.568;2023-08-21T03:22:58;86427.41;;;19.37;51.59
41312;BME280;27061;41.648;24.568;2023-08-21T03:25:25;86437.91;;;19.38;50.90
41312;BME280;27061;41.648;24.568;2023-08-21T03:27:54;86397.84;;;19.19;51.16
41312;BME280;27061;41.648;24.568;2023-08-21T03:30:21;86444.78;;;19.42;51.81
41312;BME280;27061;41.648;24.568;2023-08-21T03:32:49;86431.72;;;19.13;52.51
41312;BME280;27061;41.648;24.568;2023-08-21T03:35:16;86440.28;;;19.30;52.10
41312;BME280;27061;41.648;24.568;2023-08-21T03:37:45;86435.63;;;19.43;51.78
41312;BME280;27061;41.648;24.568;2023-08-21T03:40:13;86441.25;;;19.43;52.11
41312;BME280;27061;41.648;24.568;2023-08-21T03:42:41;86445.63;;;19.38;51.98
41312;BME280;27061;41.648;24.568;2023-08-21T03:45:10;86438.31;;;19.47;52.10
41312;BME280;27061;41.648;24.568;2023-08-21T03:47:38;86404.41;;;19.32;52.59
41312;BME280;27061;41.648;24.568;2023-08-21T03:50:12;86415.44;;;19.18;52.92
41312;BME280;27061;41.648;24.568;2023-08-21T03:52:40;86438.38;;;19.24;53.14
41312;BME280;27061;41.648;24.568;2023-08-21T03:55:07;86437.00;;;19.23;52.67
41312;BME280;27061;41.648;24.568;2023-08-21T03:57:35;86447.53;;;19.23;53.09
41312;BME280;27061;41.648;24.568;2023-08-21T04:00:04;86399.56;;;19.10;52.99
41312;BME280;27061;41.648;24.568;2023-08-21T04:02:40;86440.78;;;19.57;52.11
41312;BME280;27061;41.648;24.568;2023-08-21T04:05:08;86441.88;;;19.66;52.19
41312;BME280;27061;41.648;24.568;2023-08-21T04:07:37;86419.19;;;19.31;52.98
41312;BME280;27061;41.648;24.568;2023-08-21T04:10:05;86431.59;;;19.38;53.16
41312;BME280;27061;41.648;24.568;2023-08-21T04:12:33;86453.44;;;19.56;53.08
41312;BME280;27061;41.648;24.568;2023-08-21T04:15:00;86452.03;;;19.57;54.14
41312;BME280;27061;41.648;24.568;2023-08-21T04:17:28;86453.59;;;19.52;54.29
41312;BME280;27061;41.648;24.568;2023-08-21T04:19:55;86420.72;;;19.28;53.82
41312;BME280;27061;41.648;24.568;2023-08-21T04:22:22;86416.31;;;19.54;54.78
41312;BME280;27061;41.648;24.568;2023-08-21T04:24:50;86404.34;;;19.55;52.66
41312;BME280;27061;41.648;24.568;2023-08-21T04:27:17;86452.59;;;19.81;52.92
41312;BME280;27061;41.648;24.568;2023-08-21T04:29:44;86449.97;;;19.95;52.59
41312;BME280;27061;41.648;24.568;2023-08-21T04:32:11;86449.28;;;19.95;52.58
41312;BME280;27061;41.648;24.568;2023-08-21T04:34:40;86450.50;;;20.00;52.98
41312;BME280;27061;41.648;24.568;2023-08-21T04:37:08;86449.44;;;20.09;52.22
41312;BME280;27061;41.648;24.568;2023-08-21T04:39:35;86389.44;;;19.80;51.83
41312;BME280;27061;41.648;24.568;2023-08-21T04:42:06;86446.97;;;20.39;50.90
41312;BME280;27061;41.648;24.568;2023-08-21T04:44:34;86443.06;;;20.30;51.28
41312;BME280;27061;41.648;24.568;2023-08-21T04:47:19;86436.91;;;20.25;51.80
41312;BME280;27061;41.648;24.568;2023-08-21T04:49:51;86453.44;;;20.35;52.76
41312;BME280;27061;41.648;24.568;2023-08-21T04:55:00;86448.25;;;20.61;50.68
41312;BME280;27061;41.648;24.568;2023-08-21T04:57:31;86258.34;;;19.16;50.71
41312;BME280;27061;41.648;24.568;2023-08-21T04:59:58;86451.31;;;20.55;51.11
41312;BME280;27061;41.648;24.568;2023-08-21T05:02:33;86445.59;;;20.57;52.63
41312;BME280;27061;41.648;24.568;2023-08-21T05:05:01;86348.97;;;19.91;52.99
41312;BME280;27061;41.648;24.568;2023-08-21T05:07:28;86454.94;;;20.70;53.20
41312;BME280;27061;41.648;24.568;2023-08-21T05:10:01;86321.31;;;19.79;52.99
41312;BME280;27061;41.648;24.568;2023-08-21T05:12:32;86441.09;;;20.64;51.19
41312;BME280;27061;41.648;24.568;2023-08-21T05:14:59;86437.81;;;20.76;50.90
41312;BME280;27061;41.648;24.568;2023-08-21T05:17:26;86305.75;;;19.82;51.79
41312;BME280;27061;41.648;24.568;2023-08-21T05:19:53;86370.50;;;20.34;52.58
41312;BME280;27061;41.648;24.568;2023-08-21T05:22:21;86271.28;;;19.65;51.74
41312;BME280;27061;41.648;24.568;2023-08-21T05:24:48;86378.00;;;20.59;51.06
41312;BME280;27061;41.648;24.568;2023-08-21T05:27:15;86310.25;;;20.29;48.87
41312;BME280;27061;41.648;24.568;2023-08-21T05:29:42;86387.63;;;20.82;50.94
41312;BME280;27061;41.648;24.568;2023-08-21T05:32:09;86466.72;;;21.45;51.12
41312;BME280;27061;41.648;24.568;2023-08-21T05:34:37;86475.78;;;21.65;51.01
41312;BME280;27061;41.648;24.568;2023-08-21T05:37:04;86371.91;;;20.88;49.95
41312;BME280;27061;41.648;24.568;2023-08-21T05:39:32;86394.50;;;21.21;49.50
41312;BME280;27061;41.648;24.568;2023-08-21T05:42:00;86446.75;;;21.68;48.42
41312;BME280;27061;41.648;24.568;2023-08-21T05:44:28;86421.66;;;21.62;49.44
41312;BME280;27061;41.648;24.568;2023-08-21T05:46:56;86456.31;;;22.09;47.32
41312;BME280;27061;41.648;24.568;2023-08-21T05:49:23;86449.88;;;21.93;48.43
41312;BME280;27061;41.648;24.568;2023-08-21T05:51:50;86468.44;;;22.22;49.07
41312;BME280;27061;41.648;24.568;2023-08-21T05:54:18;86464.94;;;22.21;49.63
41312;BME280;27061;41.648;24.568;2023-08-21T05:56:52;86438.63;;;22.10;49.74
41312;BME280;27061;41.648;24.568;2023-08-21T05:59:30;86474.19;;;22.51;48.05
41312;BME280;27061;41.648;24.568;2023-08-21T06:02:00;86406.94;;;22.10;49.68
41312;BME280;27061;41.648;24.568;2023-08-21T06:04:27;86439.50;;;22.38;49.08
41312;BME280;27061;41.648;24.568;2023-08-21T06:07:01;86474.47;;;22.77;49.53
41312;BME280;27061;41.648;24.568;2023-08-21T06:09:30;86482.28;;;22.91;48.26
41312;BME280;27061;41.648;24.568;2023-08-21T06:11:58;86480.34;;;23.02;48.30
41312;BME280;27061;41.648;24.568;2023-08-21T06:14:26;86478.81;;;23.05;47.41
41312;BME280;27061;41.648;24.568;2023-08-21T06:17:03;86487.41;;;23.18;48.47
41312;BME280;27061;41.648;24.568;2023-08-21T06:19:31;86482.63;;;23.29;48.54
41312;BME280;27061;41.648;24.568;2023-08-21T06:21:58;86489.03;;;23.42;48.08
41312;BME280;27061;41.648;24.568;2023-08-21T06:24:25;86493.47;;;23.54;47.33
41312;BME280;27061;41.648;24.568;2023-08-21T06:27:04;86495.22;;;23.61;47.96
41312;BME280;27061;41.648;24.568;2023-08-21T06:29:35;86481.97;;;23.73;46.41
41312;BME280;27061;41.648;24.568;2023-08-21T06:32:04;86494.63;;;23.88;47.57
41312;BME280;27061;41.648;24.568;2023-08-21T06:34:31;86451.06;;;23.68;45.99
41312;BME280;27061;41.648;24.568;2023-08-21T06:36:58;86487.78;;;23.98;45.02
41312;BME280;27061;41.648;24.568;2023-08-21T06:39:26;86486.47;;;24.09;47.19
41312;BME280;27061;41.648;24.568;2023-08-21T06:41:53;86448.09;;;24.00;47.04
41312;BME280;27061;41.648;24.568;2023-08-21T06:44:20;86470.78;;;24.13;44.61
41312;BME280;27061;41.648;24.568;2023-08-21T06:46:47;86497.69;;;24.54;43.84
41312;BME280;27061;41.648;24.568;2023-08-21T06:49:15;86477.72;;;24.43;44.98
41312;BME280;27061;41.648;24.568;2023-08-21T06:51:42;86502.63;;;24.68;45.28
41312;BME280;27061;41.648;24.568;2023-08-21T06:54:09;86498.69;;;24.75;44.75
41312;BME280;27061;41.648;24.568;2023-08-21T06:56:36;86491.22;;;24.83;43.72
41312;BME280;27061;41.648;24.568;2023-08-21T06:59:04;86500.66;;;24.92;45.42
41312;BME280;27061;41.648;24.568;2023-08-21T07:01:31;86499.34;;;25.03;45.59
41312;BME280;27061;41.648;24.568;2023-08-21T07:03:58;86454.84;;;24.74;43.26
41312;BME280;27061;41.648;24.568;2023-08-21T07:06:27;86502.25;;;25.29;44.50
41312;BME280;27061;41.648;24.568;2023-08-21T07:08:55;86464.69;;;25.03;44.46
41312;BME280;27061;41.648;24.568;2023-08-21T07:11:22;86514.72;;;25.46;43.86
41312;BME280;27061;41.648;24.568;2023-08-21T07:13:50;86485.00;;;25.33;43.47
41312;BME280;27061;41.648;24.568;2023-08-21T07:16:17;86523.19;;;25.74;43.65
41312;BME280;27061;41.648;24.568;2023-08-21T07:18:44;86487.97;;;25.43;41.57
41312;BME280;27061;41.648;24.568;2023-08-21T07:21:11;86490.91;;;25.54;42.67
41312;BME280;27061;41.648;24.568;2023-08-21T07:23:58;86516.91;;;25.97;43.16
41312;BME280;27061;41.648;24.568;2023-08-21T07:26:26;86491.84;;;25.76;42.05
41312;BME280;27061;41.648;24.568;2023-08-21T07:28:53;86487.56;;;25.77;41.36
41312;BME280;27061;41.648;24.568;2023-08-21T07:31:20;86517.25;;;26.29;40.72
41312;BME280;27061;41.648;24.568;2023-08-21T07:33:47;86479.81;;;26.13;40.43
41312;BME280;27061;41.648;24.568;2023-08-21T07:36:14;86499.53;;;26.28;42.21
41312;BME280;27061;41.648;24.568;2023-08-21T07:38:44;86509.28;;;26.44;42.31
41312;BME280;27061;41.648;24.568;2023-08-21T07:41:12;86510.38;;;26.49;41.13
41312;BME280;27061;41.648;24.568;2023-08-21T07:43:41;86514.00;;;26.60;39.88
41312;BME280;27061;41.648;24.568;2023-08-21T07:46:10;86507.22;;;26.55;41.21
41312;BME280;27061;41.648;24.568;2023-08-21T07:48:40;86480.91;;;26.44;39.42
41312;BME280;27061;41.648;24.568;2023-08-21T07:51:08;86510.56;;;26.70;41.30
41312;BME280;27061;41.648;24.568;2023-08-21T07:53:35;86518.06;;;26.76;40.20
41312;BME280;27061;41.648;24.568;2023-08-21T07:56:03;86516.28;;;26.57;38.90
41312;BME280;27061;41.648;24.568;2023-08-21T07:58:31;86469.34;;;26.35;39.87
41312;BME280;27061;41.648;24.568;2023-08-21T08:00:58;86518.63;;;26.78;41.25
41312;BME280;27061;41.648;24.568;2023-08-21T08:03:26;86510.63;;;26.93;37.92
41312;BME280;27061;41.648;24.568;2023-08-21T08:05:53;86514.38;;;26.90;39.35
41312;BME280;27061;41.648;24.568;2023-08-21T08:08:21;86514.31;;;27.03;38.67
41312;BME280;27061;41.648;24.568;2023-08-21T08:10:48;86496.81;;;27.11;39.06
41312;BME280;27061;41.648;24.568;2023-08-21T08:13:16;86483.00;;;26.92;39.05
41312;BME280;27061;41.648;24.568;2023-08-21T08:15:43;86507.22;;;27.14;38.82
41312;BME280;27061;41.648;24.568;2023-08-21T08:18:11;86509.72;;;27.20;38.44
41312;BME280;27061;41.648;24.568;2023-08-21T08:20:39;86512.59;;;27.31;38.56
41312;BME280;27061;41.648;24.568;2023-08-21T08:23:06;86499.06;;;27.31;38.57
41312;BME280;27061;41.648;24.568;2023-08-21T08:25:34;86483.00;;;27.15;37.06
41312;BME280;27061;41.648;24.568;2023-08-21T08:28:01;86510.44;;;27.31;36.98
41312;BME280;27061;41.648;24.568;2023-08-21T08:30:28;86501.72;;;27.23;37.44
41312;BME280;27061;41.648;24.568;2023-08-21T08:32:55;86461.22;;;27.12;37.01
41312;BME280;27061;41.648;24.568;2023-08-21T08:35:22;86491.75;;;27.34;36.73
41312;BME280;27061;41.648;24.568;2023-08-21T08:37:49;86487.91;;;27.17;37.46
41312;BME280;27061;41.648;24.568;2023-08-21T08:40:17;86520.25;;;27.45;36.86
41312;BME280;27061;41.648;24.568;2023-08-21T08:42:45;86520.94;;;27.46;35.88
41312;BME280;27061;41.648;24.568;2023-08-21T08:45:13;86506.66;;;27.35;36.80
41312;BME280;27061;41.648;24.568;2023-08-21T08:47:41;86480.59;;;27.43;36.04
41312;BME280;27061;41.648;24.568;2023-08-21T08:50:09;86512.41;;;27.69;37.20
41312;BME280;27061;41.648;24.568;2023-08-21T08:52:38;86508.25;;;27.89;36.21
41312;BME280;27061;41.648;24.568;2023-08-21T08:55:06;86513.59;;;27.95;35.54
41312;BME280;27061;41.648;24.568;2023-08-21T08:57:34;86473.78;;;27.61;33.43
41312;BME280;27061;41.648;24.568;2023-08-21T09:00:02;86502.34;;;28.04;35.22
41312;BME280;27061;41.648;24.568;2023-08-21T09:02:31;86489.63;;;28.03;35.42
41312;BME280;27061;41.648;24.568;2023-08-21T09:04:59;86475.50;;;28.01;34.69
41312;BME280;27061;41.648;24.568;2023-08-21T09:07:26;86502.44;;;28.36;33.84
41312;BME280;27061;41.648;24.568;2023-08-21T09:09:53;86481.94;;;28.23;33.65
41312;BME280;27061;41.648;24.568;2023-08-21T09:12:21;86487.13;;;28.41;34.57
41312;BME280;27061;41.648;24.568;2023-08-21T09:14:48;86470.69;;;28.31;34.07
41312;BME280;27061;41.648;24.568;2023-08-21T09:17:16;86489.97;;;28.63;34.45
41312;BME280;27061;41.648;24.568;2023-08-21T09:19:43;86503.72;;;28.82;34.10
41312;BME280;27061;41.648;24.568;2023-08-21T09:22:13;86503.56;;;28.94;33.33
41312;BME280;27061;41.648;24.568;2023-08-21T09:25:00;86510.06;;;29.03;33.08
41312;BME280;27061;41.648;24.568;2023-08-21T09:27:27;86510.91;;;29.02;32.72
41312;BME280;27061;41.648;24.568;2023-08-21T09:29:54;86439.50;;;28.72;32.82
41312;BME280;27061;41.648;24.568;2023-08-21T09:32:21;86502.03;;;29.27;32.63
41312;BME280;27061;41.648;24.568;2023-08-21T09:34:48;86473.38;;;29.40;32.41
41312;BME280;27061;41.648;24.568;2023-08-21T09:37:16;86483.44;;;29.39;31.96
41312;BME280;27061;41.648;24.568;2023-08-21T09:39:44;86458.31;;;29.41;31.47
41312;BME280;27061;41.648;24.568;2023-08-21T09:42:13;86491.53;;;29.66;31.39
41312;BME280;27061;41.648;24.568;2023-08-21T09:44:41;86484.00;;;29.71;32.12
41312;BME280;27061;41.648;24.568;2023-08-21T09:47:13;86464.91;;;29.59;30.13
41312;BME280;27061;41.648;24.568;2023-08-21T09:49:40;86491.00;;;29.94;30.02
41312;BME280;27061;41.648;24.568;2023-08-21T09:52:08;86467.97;;;29.76;29.52
41312;BME280;27061;41.648;24.568;2023-08-21T09:54:39;86459.84;;;29.70;29.84
41312;BME280;27061;41.648;24.568;2023-08-21T09:57:09;86475.22;;;29.95;28.39
41312;BME280;27061;41.648;24.568;2023-08-21T09:59:37;86481.34;;;29.89;28.54
41312;BME280;27061;41.648;24.568;2023-08-21T10:02:09;86456.78;;;29.53;30.28
41312;BME280;27061;41.648;24.568;2023-08-21T10:04:38;86483.50;;;29.99;31.22
41312;BME280;27061;41.648;24.568;2023-08-21T10:07:07;86469.19;;;30.09;30.25
41312;BME280;27061;41.648;24.568;2023-08-21T10:09:35;86462.34;;;29.96;29.84
41312;BME280;27061;41.648;24.568;2023-08-21T10:12:04;86483.38;;;30.01;30.53
41312;BME280;27061;41.648;24.568;2023-08-21T10:14:32;86483.22;;;30.03;30.12
41312;BME280;27061;41.648;24.568;2023-08-21T10:17:00;86441.78;;;29.63;29.69
41312;BME280;27061;41.648;24.568;2023-08-21T10:19:31;86494.50;;;30.05;30.08
41312;BME280;27061;41.648;24.568;2023-08-21T10:21:59;86460.38;;;29.73;29.96
41312;BME280;27061;41.648;24.568;2023-08-21T10:24:28;86430.72;;;29.78;28.80
41312;BME280;27061;41.648;24.568;2023-08-21T10:27:00;86445.47;;;29.92;29.34
41312;BME280;27061;41.648;24.568;2023-08-21T10:29:27;86470.06;;;30.27;29.06
41312;BME280;27061;41.648;24.568;2023-08-21T10:32:02;86436.94;;;30.11;28.99
41312;BME280;27061;41.648;24.568;2023-08-21T10:34:37;86464.50;;;30.44;29.79
41312;BME280;27061;41.648;24.568;2023-08-21T10:37:08;86464.03;;;30.31;29.76
41312;BME280;27061;41.648;24.568;2023-08-21T10:39:54;86441.19;;;30.31;29.98
41312;BME280;27061;41.648;24.568;2023-08-21T10:42:37;86475.63;;;30.48;29.15
41312;BME280;27061;41.648;24.568;2023-08-21T10:45:12;86473.75;;;30.45;28.79
41312;BME280;27061;41.648;24.568;2023-08-21T10:47:40;86474.19;;;30.39;28.10
41312;BME280;27061;41.648;24.568;2023-08-21T10:50:08;86480.53;;;30.50;26.92
41312;BME280;27061;41.648;24.568;2023-08-21T10:52:39;86481.94;;;30.40;27.73
41312;BME280;27061;41.648;24.568;2023-08-21T10:55:11;86466.78;;;30.52;28.13
41312;BME280;27061;41.648;24.568;2023-08-21T10:57:39;86437.44;;;30.43;28.95
41312;BME280;27061;41.648;24.568;2023-08-21T11:00:14;86461.66;;;30.64;28.66
41312;BME280;27061;41.648;24.568;2023-08-21T11:02:43;86443.94;;;30.72;27.19
41312;BME280;27061;41.648;24.568;2023-08-21T11:05:12;86429.63;;;30.72;28.75
41312;BME280;27061;41.648;24.568;2023-08-21T11:07:44;86424.75;;;30.70;27.77
41312;BME280;27061;41.648;24.568;2023-08-21T11:10:16;86427.47;;;30.72;28.22
41312;BME280;27061;41.648;24.568;2023-08-21T11:12:52;86476.22;;;31.17;27.91
41312;BME280;27061;41.648;24.568;2023-08-21T11:15:20;86478.63;;;31.23;26.88
41312;BME280;27061;41.648;24.568;2023-08-21T11:17:57;86469.22;;;31.25;28.05
41312;BME280;27061;41.648;24.568;2023-08-21T11:20:33;86466.25;;;31.36;28.31
41312;BME280;27061;41.648;24.568;2023-08-21T11:23:03;86468.34;;;31.46;28.48
41312;BME280;27061;41.648;24.568;2023-08-21T11:25:35;86451.63;;;31.40;28.03
41312;BME280;27061;41.648;24.568;2023-08-21T11:28:05;86457.91;;;31.51;27.70
41312;BME280;27061;41.648;24.568;2023-08-21T11:30:32;86462.72;;;31.63;28.01
41312;BME280;27061;41.648;24.568;2023-08-21T11:33:06;86456.50;;;31.69;28.39
41312;BME280;27061;41.648;24.568;2023-08-21T11:35:34;86450.63;;;31.71;26.88
41312;BME280;27061;41.648;24.568;2023-08-21T11:38:03;86443.91;;;31.66;27.69
41312;BME280;27061;41.648;24.568;2023-08-21T11:40:35;86442.94;;;31.78;28.09
41312;BME280;27061;41.648;24.568;2023-08-21T11:43:03;86432.94;;;31.69;28.59
41312;BME280;27061;41.648;24.568;2023-08-21T11:45:32;86442.94;;;31.78;28.27
41312;BME280;27061;41.648;24.568;2023-08-21T11:48:15;86443.66;;;31.87;28.08
41312;BME280;27061;41.648;24.568;2023-08-21T11:50:42;86425.13;;;31.86;28.18
41312;BME280;27061;41.648;24.568;2023-08-21T11:53:11;86448.59;;;32.06;27.32
41312;BME280;27061;41.648;24.568;2023-08-21T11:55:39;86422.66;;;31.99;27.23
41312;BME280;27061;41.648;24.568;2023-08-21T11:58:07;86440.84;;;32.05;27.75
41312;BME280;27061;41.648;24.568;2023-08-21T12:00:34;86445.22;;;32.12;27.92
41312;BME280;27061;41.648;24.568;2023-08-21T12:03:01;86451.47;;;32.15;26.98
41312;BME280;27061;41.648;24.568;2023-08-21T12:05:30;86451.44;;;31.97;27.67
41312;BME280;27061;41.648;24.568;2023-08-21T12:07:57;86435.91;;;31.58;27.43
41312;BME280;27061;41.648;24.568;2023-08-21T12:10:26;86464.50;;;31.77;27.55
41312;BME280;27061;41.648;24.568;2023-08-21T12:12:54;86463.00;;;31.59;26.86
41312;BME280;27061;41.648;24.568;2023-08-21T12:15:22;86462.28;;;31.50;27.54
41312;BME280;27061;41.648;24.568;2023-08-21T12:17:49;86449.81;;;31.45;27.94
41312;BME280;27061;41.648;24.568;2023-08-21T12:20:16;86447.84;;;31.52;28.58
41312;BME280;27061;41.648;24.568;2023-08-21T12:22:44;86434.63;;;31.38;27.96
41312;BME280;27061;41.648;24.568;2023-08-21T12:25:11;86458.63;;;31.60;28.69
41312;BME280;27061;41.648;24.568;2023-08-21T12:27:40;86425.25;;;31.48;27.98
41312;BME280;27061;41.648;24.568;2023-08-21T12:30:07;86428.47;;;31.52;28.37
41312;BME280;27061;41.648;24.568;2023-08-21T12:32:35;86447.63;;;31.73;28.26
41312;BME280;27061;41.648;24.568;2023-08-21T12:35:02;86437.03;;;31.80;27.88
41312;BME280;27061;41.648;24.568;2023-08-21T12:37:31;86448.34;;;31.91;28.15
41312;BME280;27061;41.648;24.568;2023-08-21T12:39:58;86436.28;;;31.99;28.24
41312;BME280;27061;41.648;24.568;2023-08-21T12:42:26;86439.16;;;32.08;28.00
41312;BME280;27061;41.648;24.568;2023-08-21T12:44:53;86425.53;;;32.17;27.86
41312;BME280;27061;41.648;24.568;2023-08-21T12:47:20;86422.88;;;32.23;28.10
41312;BME280;27061;41.648;24.568;2023-08-21T12:49:47;86431.75;;;32.11;27.59
41312;BME280;27061;41.648;24.568;2023-08-21T12:52:15;86430.75;;;32.06;26.03
41312;BME280;27061;41.648;24.568;2023-08-21T12:54:42;86412.03;;;32.07;26.05
41312;BME280;27061;41.648;24.568;2023-08-21T12:57:09;86431.13;;;32.19;25.56
41312;BME280;27061;41.648;24.568;2023-08-21T12:59:38;86401.59;;;32.12;25.03
41312;BME280;27061;41.648;24.568;2023-08-21T13:02:05;86397.78;;;32.24;25.15
41312;BME280;27061;41.648;24.568;2023-08-21T13:04:33;86401.00;;;32.28;24.72
41312;BME280;27061;41.648;24.568;2023-08-21T13:07:00;86396.44;;;32.31;24.62